Time;durP1;ratioP1;P1;durP2;ratioP2;P2;SDS_P1;SDS_P2;PMS_P1;PMS_P2;Temp;Humidity;BMP_temperature;BMP_pressure;BME280_temperature;BME280_humidity;BME280_pressure;Samples;Min_cycle;Max_cycle;Signal;HPM_P1;HPM_P2
2023/02/06 00:01:41;;;;;;;11.20;5.47;;;;;;;-5.83;100.00;102959.97;5002169;28;20038;-76
2023/02/06 00:04:06;;;;;;;10.97;4.90;;;;;;;-5.83;100.00;102956.50;5004479;28;20040;-75
2023/02/06 00:06:32;;;;;;;10.50;5.40;;;;;;;-5.89;100.00;102959.38;5003469;28;20034;-76
2023/02/06 00:08:57;;;;;;;13.67;5.33;;;;;;;-5.97;100.00;102955.19;4999161;28;20037;-76
2023/02/06 00:11:23;;;;;;;12.70;6.13;;;;;;;-6.01;100.00;102942.75;5003045;28;20040;-75
2023/02/06 00:13:49;;;;;;;13.70;5.63;;;;;;;-6.03;100.00;102941.69;5004256;28;20046;-75
2023/02/06 00:16:16;;;;;;;15.93;5.90;;;;;;;-6.03;100.00;102940.03;5003177;28;20038;-75
2023/02/06 00:18:42;;;;;;;10.57;5.47;;;;;;;-6.01;100.00;102937.63;5005928;28;20034;-75
2023/02/06 00:21:07;;;;;;;12.17;5.73;;;;;;;-6.00;100.00;102929.13;5004533;28;20034;-75
2023/02/06 00:23:33;;;;;;;13.27;5.03;;;;;;;-6.02;100.00;102925.53;5003047;28;20594;-76
2023/02/06 00:25:58;;;;;;;11.93;5.87;;;;;;;-6.07;100.00;102930.22;5001055;28;20497;-76
2023/02/06 00:28:23;;;;;;;11.77;6.07;;;;;;;-6.06;100.00;102931.13;5004442;28;20121;-76
2023/02/06 00:30:48;;;;;;;10.40;4.60;;;;;;;-6.15;100.00;102922.50;5003145;28;20133;-76
2023/02/06 00:33:14;;;;;;;11.07;5.37;;;;;;;-6.15;100.00;102928.56;5002518;28;20131;-76
2023/02/06 00:35:39;;;;;;;13.33;5.90;;;;;;;-6.11;100.00;102940.94;5001305;28;20081;-76
2023/02/06 00:38:05;;;;;;;12.63;5.20;;;;;;;-6.14;100.00;102934.59;5004634;28;20038;-76
2023/02/06 00:40:31;;;;;;;13.37;6.70;;;;;;;-6.29;100.00;102934.88;5000825;28;20082;-76
2023/02/06 00:42:56;;;;;;;13.30;5.60;;;;;;;-6.30;100.00;102927.91;5004356;28;20041;-76
2023/02/06 00:45:21;;;;;;;11.20;5.93;;;;;;;-6.23;100.00;102932.03;5000037;28;20132;-75
2023/02/06 00:47:47;;;;;;;13.13;5.87;;;;;;;-6.21;100.00;102923.72;5005227;28;20038;-76
2023/02/06 00:50:12;;;;;;;13.13;5.93;;;;;;;-6.19;100.00;102924.75;5004194;28;20101;-76
2023/02/06 00:52:37;;;;;;;12.90;5.47;;;;;;;-6.19;100.00;102931.56;5001589;28;20034;-76
2023/02/06 00:55:03;;;;;;;11.17;5.30;;;;;;;-6.21;100.00;102933.06;5000134;28;20069;-76
2023/02/06 00:57:29;;;;;;;13.20;5.63;;;;;;;-6.19;100.00;102937.59;5004472;28;20037;-76
2023/02/06 00:59:54;;;;;;;10.90;5.50;;;;;;;-6.21;100.00;102946.84;4999892;28;20030;-76
2023/02/06 01:02:19;;;;;;;14.20;5.97;;;;;;;-6.22;100.00;102957.88;5003623;28;20409;-76
2023/02/06 01:04:45;;;;;;;14.33;6.43;;;;;;;-6.23;100.00;102953.50;5003657;28;20416;-76
2023/02/06 01:07:10;;;;;;;13.07;6.40;;;;;;;-6.26;100.00;102953.19;5000729;28;20039;-75
2023/02/06 01:09:35;;;;;;;11.53;5.60;;;;;;;-6.24;100.00;102956.78;5004850;28;20038;-75
2023/02/06 01:12:01;;;;;;;11.90;5.43;;;;;;;-6.26;100.00;102954.81;5001037;28;20034;-75
2023/02/06 01:14:26;;;;;;;12.10;5.73;;;;;;;-6.27;100.00;102959.06;5004616;28;20551;-76
2023/02/06 01:16:51;;;;;;;12.97;5.73;;;;;;;-6.29;100.00;102960.56;4999478;28;20568;-76
2023/02/06 01:19:17;;;;;;;11.47;4.77;;;;;;;-6.27;100.00;102947.88;5004371;28;20118;-76
2023/02/06 01:21:42;;;;;;;13.00;5.50;;;;;;;-6.23;100.00;102950.91;5001185;28;20065;-75
2023/02/06 01:24:07;;;;;;;13.47;5.60;;;;;;;-6.17;100.00;102954.09;5004124;28;20513;-76
2023/02/06 01:26:33;;;;;;;12.23;5.83;;;;;;;-6.12;100.00;102953.66;5002168;28;20046;-75
2023/02/06 01:28:58;;;;;;;11.67;5.53;;;;;;;-6.09;100.00;102956.53;5004019;28;20076;-75
2023/02/06 01:31:28;;;;;;;12.70;5.47;;;;;;;-6.07;100.00;102955.03;5000490;28;20047;-75
2023/02/06 01:33:56;;;;;;;11.90;4.70;;;;;;;-6.05;100.00;102956.06;5002686;28;20038;-75
2023/02/06 01:36:22;;;;;;;13.97;5.87;;;;;;;-6.14;100.00;102961.19;5000605;28;20040;-76
2023/02/06 01:38:48;;;;;;;12.60;5.77;;;;;;;-6.12;100.00;102958.78;5002655;28;20035;-76
2023/02/06 01:41:15;;;;;;;13.23;5.23;;;;;;;-6.06;100.00;102951.69;5001831;28;20037;-75
2023/02/06 01:43:44;;;;;;;11.13;4.77;;;;;;;-6.06;100.00;102954.25;5001660;28;20141;-75
2023/02/06 01:46:10;;;;;;;12.73;5.73;;;;;;;-6.06;100.00;102959.41;5001764;28;20083;-75
2023/02/06 01:48:53;;;;;;;13.03;5.83;;;;;;;-6.04;100.00;102973.31;5003133;28;20493;-75
2023/02/06 01:51:23;;;;;;;10.87;5.47;;;;;;;-6.02;100.00;102980.44;4983520;28;20113;-75
2023/02/06 01:53:53;;;;;;;12.90;5.83;;;;;;;-6.03;100.00;102990.56;5000376;28;20041;-75
2023/02/06 01:56:20;;;;;;;15.67;6.30;;;;;;;-6.00;100.00;102971.22;5002743;28;20029;-75
2023/02/06 01:58:53;;;;;;;13.37;6.00;;;;;;;-5.98;100.00;102971.34;4999351;28;20057;-75
2023/02/06 02:01:20;;;;;;;14.07;6.00;;;;;;;-5.94;100.00;102970.91;4992104;28;20173;-76
2023/02/06 02:03:49;;;;;;;12.60;5.40;;;;;;;-5.91;100.00;102966.03;5001487;28;20031;-75
2023/02/06 02:06:18;;;;;;;16.20;7.27;;;;;;;-5.93;100.00;102967.53;4999412;28;20041;-75
2023/02/06 02:08:46;;;;;;;12.50;5.47;;;;;;;-6.00;100.00;102966.06;4999845;28;20041;-75
2023/02/06 02:11:22;;;;;;;13.07;6.40;;;;;;;-6.03;100.00;102968.31;4999951;28;20037;-75
2023/02/06 02:13:50;;;;;;;15.33;5.53;;;;;;;-6.02;100.00;102958.97;4996526;28;20038;-75
2023/02/06 02:16:40;;;;;;;13.83;5.70;;;;;;;-6.03;100.00;102957.13;4995415;28;20044;-75
2023/02/06 02:19:45;;;;;;;14.80;7.03;;;;;;;-6.09;100.00;102951.38;4999638;28;20044;-76
2023/02/06 02:22:23;;;;;;;16.17;6.33;;;;;;;-6.14;100.00;102947.44;4996421;28;20560;-75
2023/02/06 02:25:10;;;;;;;13.13;6.30;;;;;;;-6.12;100.00;102933.09;4999810;28;20044;-75
2023/02/06 02:27:58;;;;;;;11.80;5.67;;;;;;;-6.09;100.00;102933.38;5000247;28;20493;-76
2023/02/06 02:30:41;;;;;;;12.23;5.70;;;;;;;-6.04;100.00;102920.22;4998415;28;20089;-75
2023/02/06 02:33:19;;;;;;;17.67;6.43;;;;;;;-6.04;100.00;102911.63;4995827;28;20543;-75
2023/02/06 02:36:03;;;;;;;13.20;5.87;;;;;;;-6.13;100.00;102890.13;5000093;28;20026;-76
2023/02/06 02:38:41;;;;;;;15.40;7.20;;;;;;;-6.20;100.00;102884.38;4980363;28;20027;-75
2023/02/06 02:41:37;;;;;;;12.00;5.63;;;;;;;-6.26;100.00;102882.88;5016310;22;20092;-75
2023/02/06 02:44:09;;;;;;;13.27;6.07;;;;;;;-6.35;100.00;102893.16;5016571;28;20050;-77
2023/02/06 02:46:39;;;;;;;13.95;7.55;;;;;;;-6.41;100.00;102889.97;5006365;28;20026;-77
2023/02/06 02:49:15;;;;;;;13.70;6.43;;;;;;;-6.48;100.00;102884.97;5016206;28;20493;-77
2023/02/06 02:51:41;;;;;;;13.40;5.80;;;;;;;-6.59;100.00;102883.91;5001511;28;20037;-77
2023/02/06 02:54:07;;;;;;;12.47;5.93;;;;;;;-6.66;100.00;102878.91;5000052;28;20061;-77
2023/02/06 02:56:33;;;;;;;16.03;6.50;;;;;;;-6.75;100.00;102890.81;5001433;28;20064;-77
2023/02/06 02:59:06;;;;;;;13.97;7.00;;;;;;;-6.72;100.00;102886.91;5001096;28;20587;-78
2023/02/06 03:01:38;;;;;;;14.75;6.65;;;;;;;-6.68;100.00;102877.81;5001306;28;20039;-77
2023/02/06 03:04:10;;;;;;;12.70;6.20;;;;;;;-6.67;100.00;102878.00;4992976;28;20146;-77
2023/02/06 03:07:07;;;;;;;15.25;6.40;;;;;;;-6.67;100.00;102877.09;4998453;28;20837;-78
2023/02/06 03:10:07;;;;;;;16.00;7.30;;;;;;;-6.69;100.00;102882.06;4987339;28;20128;-77
2023/02/06 03:12:51;;;;;;;13.47;6.40;;;;;;;-6.66;100.00;102881.47;5001501;28;20041;-78
2023/02/06 03:15:25;;;;;;;17.70;7.03;;;;;;;-6.64;100.00;102868.03;4998420;28;20477;-78
2023/02/06 03:18:01;;;;;;;15.00;6.60;;;;;;;-6.60;100.00;102874.41;5001073;28;20042;-77
2023/02/06 03:20:30;;;;;;;15.07;6.77;;;;;;;-6.55;100.00;102877.41;4991556;28;20517;-77
2023/02/06 03:22:57;;;;;;;10.87;5.47;;;;;;;-6.54;100.00;102875.00;4998432;28;20057;-77
2023/02/06 03:25:40;;;;;;;12.87;6.30;;;;;;;-6.45;100.00;102869.84;5000630;28;20477;-77
2023/02/06 03:28:17;;;;;;;14.90;6.17;;;;;;;-6.35;100.00;102871.69;5002969;28;20034;-77
2023/02/06 03:30:46;;;;;;;12.77;5.60;;;;;;;-6.29;100.00;102867.16;4997979;28;20072;-77
2023/02/06 03:33:14;;;;;;;12.87;5.80;;;;;;;-6.22;100.00;102880.75;4999242;28;20484;-77
2023/02/06 03:35:40;;;;;;;15.47;6.37;;;;;;;-6.18;100.00;102888.03;5003026;28;20026;-77
2023/02/06 03:38:07;;;;;;;15.50;6.67;;;;;;;-6.13;100.00;102879.84;5004077;28;20077;-77
2023/02/06 03:40:34;;;;;;;11.87;5.97;;;;;;;-6.10;100.00;102875.00;5002682;28;20485;-77
2023/02/06 03:43:01;;;;;;;12.27;5.97;;;;;;;-6.13;100.00;102887.56;5004985;28;20073;-77
2023/02/06 03:45:38;;;;;;;15.30;6.20;;;;;;;-6.12;100.00;102881.69;5005021;28;20488;-77
2023/02/06 03:48:10;;;;;;;14.47;6.50;;;;;;;-6.10;100.00;102869.84;5001171;28;20026;-77
2023/02/06 03:50:41;;;;;;;15.10;6.22;;;;;;;-6.10;100.00;102857.00;5004509;28;20038;-77
2023/02/06 03:53:09;;;;;;;13.20;6.10;;;;;;;-6.10;100.00;102859.56;5003548;28;20042;-77
2023/02/06 03:55:36;;;;;;;14.27;6.53;;;;;;;-6.09;100.00;102866.56;5004842;28;20080;-77
2023/02/06 03:58:05;;;;;;;18.03;7.27;;;;;;;-6.10;100.00;102860.50;5005586;28;20137;-78
2023/02/06 04:00:32;;;;;;;14.60;6.83;;;;;;;-6.09;100.00;102871.69;4998993;28;20093;-77
2023/02/06 04:02:58;;;;;;;12.63;6.13;;;;;;;-6.07;100.00;102876.22;5002262;28;20084;-77
2023/02/06 04:05:24;;;;;;;12.53;5.87;;;;;;;-6.09;100.00;102871.69;5004156;28;20045;-77
2023/02/06 04:07:51;;;;;;;12.93;5.70;;;;;;;-6.06;100.00;102864.28;5005147;28;20029;-77
2023/02/06 04:10:17;;;;;;;15.80;6.50;;;;;;;-6.04;100.00;102868.81;4993592;28;20504;-77
2023/02/06 04:12:42;;;;;;;12.80;6.03;;;;;;;-6.04;100.00;102867.91;5004776;28;20045;-78
2023/02/06 04:15:08;;;;;;;15.03;6.03;;;;;;;-6.15;100.00;102871.09;5003543;28;20038;-78
2023/02/06 04:17:33;;;;;;;12.87;6.47;;;;;;;-6.15;100.00;102864.28;5004458;28;20109;-77
2023/02/06 04:19:59;;;;;;;14.00;6.43;;;;;;;-6.06;100.00;102869.41;5003630;28;20038;-77
2023/02/06 04:22:24;;;;;;;17.27;6.80;;;;;;;-5.96;100.00;102874.69;5004691;28;20026;-78
2023/02/06 04:24:49;;;;;;;20.17;8.53;;;;;;;-5.84;100.00;102883.59;5004517;28;20480;-78
2023/02/06 04:27:15;;;;;;;14.63;7.80;;;;;;;-5.72;100.00;102881.28;5003325;28;20492;-77
2023/02/06 04:29:41;;;;;;;16.33;8.17;;;;;;;-5.59;100.00;102875.66;5003673;28;20042;-77
2023/02/06 04:32:06;;;;;;;17.30;7.43;;;;;;;-5.52;100.00;102875.50;5001652;28;20038;-77
2023/02/06 04:34:33;;;;;;;15.43;7.50;;;;;;;-5.51;100.00;102878.19;5003761;28;20034;-77
2023/02/06 04:36:59;;;;;;;16.23;7.27;;;;;;;-5.39;100.00;102883.63;5003331;28;20038;-77
2023/02/06 04:39:25;;;;;;;17.70;8.43;;;;;;;-5.25;100.00;102873.75;5000748;28;20145;-77
2023/02/06 04:41:50;;;;;;;15.27;7.60;;;;;;;-5.11;100.00;102886.25;5004350;28;20122;-78
2023/02/06 04:44:16;;;;;;;18.37;8.63;;;;;;;-4.92;100.00;102884.66;5001723;28;20076;-78
2023/02/06 04:46:42;;;;;;;18.70;8.70;;;;;;;-4.79;100.00;102880.63;5002850;28;20026;-77
2023/02/06 04:49:08;;;;;;;20.27;9.47;;;;;;;-4.76;100.00;102886.09;5005347;28;20489;-77
2023/02/06 04:51:33;;;;;;;18.07;8.50;;;;;;;-4.65;100.00;102887.97;5001973;28;20113;-78
2023/02/06 04:53:59;;;;;;;16.40;9.27;;;;;;;-4.53;100.00;102891.72;4999060;28;20124;-77
2023/02/06 04:56:24;;;;;;;18.57;9.83;;;;;;;-4.38;100.00;102891.28;5003410;28;20121;-78
2023/02/06 04:58:50;;;;;;;19.83;9.43;;;;;;;-4.34;100.00;102898.56;5001880;28;20038;-75
2023/02/06 05:01:16;;;;;;;15.03;7.83;;;;;;;-4.23;100.00;102895.28;5003860;28;20396;-75
2023/02/06 05:03:41;;;;;;;15.93;7.53;;;;;;;-4.19;100.00;102889.66;5004245;28;20515;-75
2023/02/06 05:06:07;;;;;;;15.10;7.43;;;;;;;-4.18;100.00;102891.44;5000420;28;20038;-76
2023/02/06 05:08:32;;;;;;;15.90;7.57;;;;;;;-4.11;100.00;102880.94;5003983;28;20029;-75
2023/02/06 05:10:58;;;;;;;16.63;8.03;;;;;;;-3.98;100.00;102875.22;4997015;28;20615;-76
2023/02/06 05:13:23;;;;;;;30.80;16.70;;;;;;;-3.89;100.00;102867.38;5004739;28;20444;-75
2023/02/06 05:15:49;;;;;;;18.60;10.37;;;;;;;-3.75;100.00;102862.69;4999247;28;20647;-75
2023/02/06 05:18:14;;;;;;;15.87;8.63;;;;;;;-3.64;100.00;102855.91;5004774;28;20038;-75
2023/02/06 05:20:40;;;;;;;15.77;8.50;;;;;;;-3.53;100.00;102851.69;5001091;28;20041;-75
2023/02/06 05:23:06;;;;;;;17.60;9.73;;;;;;;-3.48;100.00;102852.06;5001222;28;20129;-75
2023/02/06 05:25:33;;;;;;;14.73;8.20;;;;;;;-3.31;100.00;102849.28;5003249;28;20113;-75
2023/02/06 05:27:58;;;;;;;25.33;13.10;;;;;;;-3.16;100.00;102840.28;5001380;28;20034;-75
2023/02/06 05:30:24;;;;;;;21.00;9.73;;;;;;;-3.09;100.00;102847.78;5002585;28;20030;-75
2023/02/06 05:32:49;;;;;;;19.80;9.60;;;;;;;-3.12;100.00;102847.53;4997070;28;20042;-75
2023/02/06 05:35:15;;;;;;;16.93;9.23;;;;;;;-3.14;100.00;102853.34;5001306;28;20034;-76
2023/02/06 05:37:40;;;;;;;14.77;7.67;;;;;;;-3.17;100.00;102859.16;5003410;28;20038;-75
2023/02/06 05:40:06;;;;;;;21.27;9.50;;;;;;;-3.10;100.00;102850.22;4990876;28;20042;-76
2023/02/06 05:42:32;;;;;;;20.17;10.40;;;;;;;-3.21;100.00;102846.72;5000008;28;20038;-75
2023/02/06 05:44:57;;;;;;;20.03;10.80;;;;;;;-3.18;100.00;102851.25;5002391;28;20087;-75
2023/02/06 05:47:22;;;;;;;19.23;10.63;;;;;;;-3.02;100.00;102843.13;5001139;28;20034;-76
2023/02/06 05:49:47;;;;;;;20.80;10.10;;;;;;;-2.92;100.00;102835.41;4999938;28;20057;-76
2023/02/06 05:52:13;;;;;;;17.20;10.33;;;;;;;-2.89;100.00;102843.41;5001612;28;20390;-75
2023/02/06 05:54:39;;;;;;;19.40;9.83;;;;;;;-2.82;100.00;102848.34;4996117;28;20409;-75
2023/02/06 05:57:05;;;;;;;18.23;9.50;;;;;;;-2.79;100.00;102856.34;4998121;28;20135;-75
2023/02/06 05:59:30;;;;;;;19.10;9.57;;;;;;;-2.79;100.00;102868.38;4999624;28;20070;-75
2023/02/06 06:01:56;;;;;;;17.63;9.50;;;;;;;-2.82;100.00;102869.00;4999832;28;20559;-75
2023/02/06 06:04:21;;;;;;;20.60;10.00;;;;;;;-2.84;100.00;102860.22;5002614;28;20033;-75
2023/02/06 06:06:46;;;;;;;19.43;9.93;;;;;;;-2.84;100.00;102857.63;5000914;28;20035;-75
2023/02/06 06:09:12;;;;;;;18.43;9.03;;;;;;;-2.86;100.00;102864.34;4999966;28;20072;-76
2023/02/06 06:11:37;;;;;;;19.50;9.40;;;;;;;-2.96;100.00;102865.25;5002335;28;20045;-75
2023/02/06 06:14:02;;;;;;;18.67;9.20;;;;;;;-3.01;100.00;102857.84;5002233;28;20046;-75
2023/02/06 06:16:28;;;;;;;16.57;8.67;;;;;;;-2.98;100.00;102874.53;4999395;28;20080;-75
2023/02/06 06:18:54;;;;;;;20.80;10.03;;;;;;;-3.02;100.00;102877.63;5003735;28;20116;-75
2023/02/06 06:21:20;;;;;;;23.37;10.33;;;;;;;-3.01;100.00;102869.13;5002683;28;20045;-75
2023/02/06 06:23:46;;;;;;;15.70;8.50;;;;;;;-2.99;100.00;102864.97;5000705;28;20037;-75
2023/02/06 06:26:11;;;;;;;16.67;8.80;;;;;;;-2.95;100.00;102866.16;5002216;28;20497;-75
2023/02/06 06:28:37;;;;;;;18.00;8.23;;;;;;;-2.86;100.00;102864.34;4999154;28;20609;-76
2023/02/06 06:31:07;;;;;;;21.17;11.37;;;;;;;-2.78;100.00;102862.41;5003141;28;20084;-76
2023/02/06 06:33:33;;;;;;;19.33;9.63;;;;;;;-2.71;100.00;102862.16;4993753;28;20092;-75
2023/02/06 06:35:59;;;;;;;18.90;9.70;;;;;;;-2.63;100.00;102867.97;4998955;28;20496;-75
2023/02/06 06:38:24;;;;;;;15.93;8.80;;;;;;;-2.53;100.00;102868.88;4998466;28;20038;-75
2023/02/06 06:40:51;;;;;;;17.70;9.13;;;;;;;-2.50;100.00;102878.59;5001245;28;20404;-75
2023/02/06 06:43:16;;;;;;;15.10;8.47;;;;;;;-2.48;100.00;102877.03;4998948;28;20084;-75
2023/02/06 06:45:42;;;;;;;16.47;8.60;;;;;;;-2.48;100.00;102871.88;5001794;28;20084;-75
2023/02/06 06:48:07;;;;;;;18.40;8.80;;;;;;;-2.45;100.00;102873.00;5002188;28;20060;-75
2023/02/06 06:50:32;;;;;;;20.37;9.93;;;;;;;-2.45;100.00;102866.94;5002447;28;20045;-75
2023/02/06 06:52:58;;;;;;;18.03;9.73;;;;;;;-2.46;100.00;102873.81;4999114;28;21783;-76
2023/02/06 06:55:23;;;;;;;21.50;11.47;;;;;;;-2.35;100.00;102874.69;4996526;28;20374;-75
2023/02/06 06:57:48;;;;;;;20.53;10.37;;;;;;;-2.38;100.00;102874.44;5001881;28;20488;-75
2023/02/06 07:00:14;;;;;;;18.63;9.47;;;;;;;-2.28;100.00;102876.09;4998379;28;20488;-75
2023/02/06 07:02:39;;;;;;;19.10;9.30;;;;;;;-2.17;100.00;102871.81;4999315;28;20041;-76
2023/02/06 07:05:05;;;;;;;14.73;8.20;;;;;;;-2.08;100.00;102872.59;4999688;28;20734;-75
2023/02/06 07:07:31;;;;;;;18.20;9.30;;;;;;;-2.09;100.00;102863.03;4997373;28;20508;-75
2023/02/06 07:09:58;;;;;;;16.30;8.70;;;;;;;-2.08;100.00;102860.53;5002665;28;20579;-75
2023/02/06 07:12:24;;;;;;;18.97;9.13;;;;;;;-2.03;100.00;102863.53;5005263;28;20157;-75
2023/02/06 07:14:50;;;;;;;19.53;9.20;;;;;;;-1.92;100.00;102857.53;5005051;28;20044;-76
2023/02/06 07:17:15;;;;;;;16.50;8.27;;;;;;;-1.87;99.30;102844.97;5005953;28;20033;-75
2023/02/06 07:19:41;;;;;;;18.90;9.20;;;;;;;-1.88;99.80;102841.47;5005451;28;20041;-76
2023/02/06 07:22:06;;;;;;;15.43;9.10;;;;;;;-1.87;100.00;102840.69;5004472;28;20057;-76
2023/02/06 07:24:32;;;;;;;16.60;8.70;;;;;;;-1.85;100.00;102841.72;5004621;28;20064;-76
2023/02/06 07:26:57;;;;;;;23.27;9.50;;;;;;;-1.75;99.68;102837.31;5002070;28;20417;-75
2023/02/06 07:29:23;;;;;;;17.00;9.03;;;;;;;-1.66;99.37;102856.16;5005507;28;20133;-76
2023/02/06 07:31:48;;;;;;;20.23;11.07;;;;;;;-1.68;99.04;102848.25;5004172;28;20034;-76
2023/02/06 07:34:15;;;;;;;18.77;10.37;;;;;;;-1.68;99.31;102848.25;5003719;28;20045;-75
2023/02/06 07:36:41;;;;;;;20.63;9.87;;;;;;;-1.63;99.98;102848.63;5002783;28;20053;-76
2023/02/06 07:39:06;;;;;;;19.60;11.57;;;;;;;-1.63;99.84;102848.63;5006088;28;20033;-76
2023/02/06 07:41:31;;;;;;;22.57;12.07;;;;;;;-1.50;99.39;102847.94;5002932;28;20532;-76
2023/02/06 07:43:56;;;;;;;20.70;11.17;;;;;;;-1.39;99.17;102842.84;5004678;28;20034;-76
2023/02/06 07:46:22;;;;;;;21.00;11.63;;;;;;;-1.33;97.76;102848.50;4995898;28;20026;-75
2023/02/06 07:48:47;;;;;;;20.43;11.20;;;;;;;-1.37;98.25;102846.41;5002250;28;20426;-75
2023/02/06 07:51:13;;;;;;;17.70;9.87;;;;;;;-1.29;98.17;102843.53;4998247;28;20062;-76
2023/02/06 07:53:38;;;;;;;15.50;8.10;;;;;;;-1.28;97.32;102845.34;5005076;28;20041;-76
2023/02/06 07:56:12;;;;;;;16.80;9.53;;;;;;;-1.29;98.27;102833.19;5001634;28;20118;-76
2023/02/06 07:58:37;;;;;;;19.03;10.07;;;;;;;-1.22;99.23;102843.25;5001440;28;20040;-75
2023/02/06 08:01:04;;;;;;;22.40;12.07;;;;;;;-1.15;98.41;102842.97;4999782;28;20113;-76
2023/02/06 08:03:29;;;;;;;18.93;10.73;;;;;;;-1.06;98.27;102832.38;4996732;28;20477;-76
2023/02/06 08:05:55;;;;;;;17.63;9.73;;;;;;;-1.15;97.65;102832.59;5004110;28;20048;-76
2023/02/06 08:08:20;;;;;;;13.70;8.17;;;;;;;-1.06;97.50;102847.94;5004336;28;20029;-76
2023/02/06 08:10:45;;;;;;;12.40;7.23;;;;;;;-0.96;96.88;102845.28;5003429;28;20041;-76
2023/02/06 08:13:11;;;;;;;12.50;7.70;;;;;;;-0.89;96.93;102843.28;5004856;28;20056;-76
2023/02/06 08:15:36;;;;;;;15.73;9.00;;;;;;;-0.79;96.32;102843.97;4998983;28;20030;-76
2023/02/06 08:18:01;;;;;;;16.67;9.53;;;;;;;-0.72;96.24;102830.72;5003367;28;20480;-76
2023/02/06 08:20:27;;;;;;;14.70;8.37;;;;;;;-0.67;95.26;102831.97;5001211;28;20041;-75
2023/02/06 08:22:53;;;;;;;17.30;9.03;;;;;;;-0.62;95.23;102835.81;5003163;28;20092;-76
2023/02/06 08:25:18;;;;;;;17.00;9.93;;;;;;;-0.71;95.06;102837.69;5006950;28;20108;-76
2023/02/06 08:27:44;;;;;;;16.10;9.40;;;;;;;-0.64;95.85;102842.56;4986638;28;20031;-75
2023/02/06 08:30:10;;;;;;;16.63;9.40;;;;;;;-0.64;94.54;102834.78;5004496;28;20037;-75
2023/02/06 08:32:36;;;;;;;16.07;9.33;;;;;;;-0.62;96.04;102830.63;5001478;28;20128;-75
2023/02/06 08:35:01;;;;;;;17.63;9.10;;;;;;;-0.54;95.52;102824.31;5002600;28;20117;-76
2023/02/06 08:37:26;;;;;;;17.73;9.80;;;;;;;-0.41;95.75;102833.03;5000580;28;20670;-75
2023/02/06 08:39:52;;;;;;;19.40;10.67;;;;;;;-0.47;94.92;102823.09;5002003;28;20088;-76
2023/02/06 08:42:17;;;;;;;17.17;9.67;;;;;;;-0.48;95.62;102822.19;5000856;28;20023;-76
2023/02/06 08:44:43;;;;;;;17.30;10.23;;;;;;;-0.34;95.42;102819.72;5028953;23;20431;-78
2023/02/06 08:47:08;;;;;;;18.70;10.67;;;;;;;-0.26;93.76;102816.91;5013810;28;20073;-78
2023/02/06 08:49:33;;;;;;;13.67;8.73;;;;;;;-0.14;94.70;102819.50;5020881;28;20034;-79
2023/02/06 08:51:59;;;;;;;16.73;9.10;;;;;;;0.00;94.06;102817.94;5011480;28;20046;-78
2023/02/06 08:54:24;;;;;;;14.13;8.13;;;;;;;0.02;93.78;102818.03;5011950;28;20026;-79
2023/02/06 08:56:50;;;;;;;15.57;8.60;;;;;;;0.06;92.73;102813.19;5018277;28;20037;-78
2023/02/06 08:59:18;;;;;;;13.83;8.03;;;;;;;0.07;92.31;102820.19;5019492;28;20029;-78
2023/02/06 09:01:44;;;;;;;17.60;8.63;;;;;;;0.06;92.91;102828.78;5015048;28;20053;-78
2023/02/06 09:04:11;;;;;;;27.57;14.37;;;;;;;0.12;92.15;102817.91;5009907;28;20034;-78
2023/02/06 09:06:40;;;;;;;18.67;11.30;;;;;;;0.15;92.97;102810.34;5016112;28;20391;-78
2023/02/06 09:09:08;;;;;;;16.63;10.00;;;;;;;0.22;92.59;102810.00;5014042;28;20042;-78
2023/02/06 09:11:33;;;;;;;18.47;10.47;;;;;;;0.32;91.87;102809.00;5016556;28;20121;-78
2023/02/06 09:14:01;;;;;;;100.43;89.93;;;;;;;0.39;91.19;102813.81;5011947;28;20493;-78
2023/02/06 09:16:28;;;;;;;18.10;11.87;;;;;;;0.44;91.22;102797.75;5010474;28;20652;-78
2023/02/06 09:18:54;;;;;;;15.80;9.57;;;;;;;0.52;91.43;102803.50;5014342;28;20508;-78
2023/02/06 09:21:24;;;;;;;16.50;10.10;;;;;;;0.55;91.37;102797.63;4993938;28;20034;-78
2023/02/06 09:23:53;;;;;;;16.65;11.00;;;;;;;0.42;91.63;102809.75;5014459;28;20030;-78
2023/02/06 09:26:22;;;;;;;16.97;9.83;;;;;;;0.36;91.24;102805.81;4994432;28;20057;-78
2023/02/06 09:28:51;;;;;;;16.43;8.70;;;;;;;0.33;92.86;102803.88;5009969;28;20421;-78
2023/02/06 09:31:16;;;;;;;18.17;10.07;;;;;;;0.38;92.08;102802.53;5012989;28;20256;-78
2023/02/06 09:33:42;;;;;;;13.87;9.13;;;;;;;0.58;92.94;102810.84;5012139;28;20102;-78
2023/02/06 09:36:11;;;;;;;15.73;9.17;;;;;;;0.59;91.56;102802.25;5010638;28;20096;-78
2023/02/06 09:38:44;;;;;;;14.35;9.20;;;;;;;0.66;91.66;102799.28;5013038;28;20030;-78
2023/02/06 09:41:18;;;;;;;15.20;8.90;;;;;;;0.64;91.81;102811.28;5012934;28;20120;-79
2023/02/06 09:43:53;;;;;;;15.63;9.00;;;;;;;0.75;91.90;102809.44;5013817;28;20089;-78
2023/02/06 09:46:25;;;;;;;15.35;9.60;;;;;;;0.69;90.67;102815.09;5009335;28;20039;-78
2023/02/06 09:48:52;;;;;;;17.27;9.55;;;;;;;0.71;89.64;102813.50;5013933;28;20447;-78
2023/02/06 09:51:39;;;;;;;15.65;9.73;;;;;;;0.78;90.28;102820.94;5015679;28;20065;-78
2023/02/06 09:54:36;;;;;;;15.32;9.20;;;;;;;0.84;89.59;102825.69;5013391;28;20061;-78
2023/02/06 09:57:16;;;;;;;16.63;9.65;;;;;;;0.83;90.79;102829.94;4973502;28;20158;-78
2023/02/06 09:59:58;;;;;;;13.65;8.68;;;;;;;1.03;89.29;102827.84;4996002;28;20477;-78
2023/02/06 10:02:39;;;;;;;13.75;8.75;;;;;;;1.19;90.11;102830.72;5015526;28;20056;-78
2023/02/06 10:05:38;;;;;;;17.00;10.15;;;;;;;1.08;89.57;102822.16;4994835;28;20049;-78
2023/02/06 10:08:22;;;;;;;16.80;9.93;;;;;;;1.08;90.21;102821.28;5013240;28;20042;-78
2023/02/06 10:10:52;;;;;;;16.08;9.57;;;;;;;1.16;91.46;102827.91;5008278;28;20117;-78
2023/02/06 10:13:36;;;;;;;12.93;8.35;;;;;;;1.34;91.48;102825.66;5014715;28;20452;-78
2023/02/06 10:16:25;;;;;;;18.42;10.45;;;;;;;1.37;90.14;102824.97;5013721;28;20069;-78
2023/02/06 10:18:58;;;;;;;15.15;9.70;;;;;;;1.02;90.20;102821.75;5013042;28;20038;-78
2023/02/06 10:21:40;;;;;;;15.75;10.10;;;;;;;1.00;90.97;102812.06;5015593;28;20485;-79
2023/02/06 10:24:31;;;;;;;16.73;10.10;;;;;;;1.04;92.11;102819.25;5013680;28;20451;-77
2023/02/06 10:27:00;;;;;;;16.15;9.52;;;;;;;1.06;91.66;102817.66;5010641;28;20180;-78
2023/02/06 10:29:28;;;;;;;17.77;10.07;;;;;;;1.33;91.65;102804.72;5010705;28;20042;-78
2023/02/06 10:32:33;;;;;;;15.23;9.63;;;;;;;1.37;90.51;102810.25;5014304;28;20034;-78
2023/02/06 10:35:41;;;;;;;12.60;8.70;;;;;;;1.39;90.62;102820.75;5014139;28;20065;-78
2023/02/06 10:38:25;;;;;;;14.40;8.85;;;;;;;1.31;90.26;102815.94;5013370;28;20057;-78
2023/02/06 10:40:59;;;;;;;14.02;9.18;;;;;;;1.23;90.57;102821.41;5015448;28;20072;-78
2023/02/06 10:43:31;;;;;;;17.48;9.52;;;;;;;1.17;91.48;102831.41;4994736;28;20049;-78
2023/02/06 10:46:04;;;;;;;12.90;8.43;;;;;;;1.15;92.39;102833.88;5011701;28;20037;-78
2023/02/06 10:48:43;;;;;;;14.95;8.98;;;;;;;1.12;92.54;102837.97;5015338;28;20038;-78
2023/02/06 10:51:17;;;;;;;14.40;9.32;;;;;;;1.21;93.95;102839.53;4995796;28;20230;-78
2023/02/06 10:53:49;;;;;;;14.18;8.65;;;;;;;1.38;93.00;102843.28;5009839;28;20042;-77
2023/02/06 10:56:18;;;;;;;17.95;8.90;;;;;;;1.51;92.68;102819.88;5012813;28;20041;-78
2023/02/06 10:58:57;;;;;;;20.20;12.13;;;;;;;1.51;92.31;102809.47;5012565;28;20037;-78
2023/02/06 11:01:25;;;;;;;18.48;11.05;;;;;;;1.64;92.91;102813.78;5009308;28;20603;-78
2023/02/06 11:03:58;;;;;;;16.65;9.77;;;;;;;1.91;91.97;102806.00;5013099;28;20045;-77
2023/02/06 11:06:27;;;;;;;15.88;9.50;;;;;;;2.05;90.21;102799.09;5016170;28;20026;-78
2023/02/06 11:08:52;;;;;;;13.30;8.85;;;;;;;1.97;90.73;102791.69;5013880;28;20048;-78
2023/02/06 11:11:24;;;;;;;15.88;8.90;;;;;;;2.08;90.44;102781.06;5015100;28;20053;-77
2023/02/06 11:14:15;;;;;;;15.10;9.35;;;;;;;2.17;89.47;102774.75;5013750;28;20045;-77
2023/02/06 11:16:41;;;;;;;18.00;11.60;;;;;;;2.11;90.21;102778.66;5014321;28;20057;-78
2023/02/06 11:19:16;;;;;;;16.33;10.45;;;;;;;2.14;89.97;102769.31;4997115;28;20041;-78
2023/02/06 11:21:51;;;;;;;15.05;9.77;;;;;;;2.17;90.34;102772.16;5017349;28;20053;-78